sensor_id;sensor_type;location;lat;lon;timestamp;P1;durP1;ratioP1;P2;durP2;ratioP2
17886;SDS011;9069;52.044;7.472;2023-08-01T00:00:10;0.80;;;0.80;;
17886;SDS011;9069;52.044;7.472;2023-08-01T00:02:37;1.77;;;1.00;;
17886;SDS011;9069;52.044;7.472;2023-08-01T00:05:05;4.70;;;1.00;;
17886;SDS011;9069;52.044;7.472;2023-08-01T00:07:31;1.20;;;1.00;;
17886;SDS011;9069;52.044;7.472;2023-08-01T00:10:03;1.92;;;0.95;;
17886;SDS011;9069;52.044;7.472;2023-08-01T00:12:30;1.85;;;1.20;;
17886;SDS011;9069;52.044;7.472;2023-08-01T00:14:57;1.20;;;1.00;;
17886;SDS011;9069;52.044;7.472;2023-08-01T00:17:24;2.15;;;1.00;;
17886;SDS011;9069;52.044;7.472;2023-08-01T00:19:51;1.55;;;1.10;;
17886;SDS011;9069;52.044;7.472;2023-08-01T00:22:17;1.95;;;1.13;;
17886;SDS011;9069;52.044;7.472;2023-08-01T00:24:44;2.78;;;0.90;;
17886;SDS011;9069;52.044;7.472;2023-08-01T00:27:13;1.45;;;1.20;;
17886;SDS011;9069;52.044;7.472;2023-08-01T00:29:40;1.40;;;1.10;;
17886;SDS011;9069;52.044;7.472;2023-08-01T00:32:07;3.70;;;1.10;;
17886;SDS011;9069;52.044;7.472;2023-08-01T00:34:34;1.38;;;1.25;;
17886;SDS011;9069;52.044;7.472;2023-08-01T00:37:02;2.63;;;1.30;;
17886;SDS011;9069;52.044;7.472;2023-08-01T00:39:29;2.08;;;1.13;;
17886;SDS011;9069;52.044;7.472;2023-08-01T00:41:56;1.40;;;1.10;;
17886;SDS011;9069;52.044;7.472;2023-08-01T00:44:23;3.28;;;1.08;;
17886;SDS011;9069;52.044;7.472;2023-08-01T00:46:50;3.35;;;1.25;;
17886;SDS011;9069;52.044;7.472;2023-08-01T00:49:17;1.77;;;1.25;;
17886;SDS011;9069;52.044;7.472;2023-08-01T00:51:44;0.95;;;0.90;;
17886;SDS011;9069;52.044;7.472;2023-08-01T00:54:11;2.00;;;1.17;;
17886;SDS011;9069;52.044;7.472;2023-08-01T00:56:38;2.65;;;1.30;;
17886;SDS011;9069;52.044;7.472;2023-08-01T00:59:05;1.38;;;1.02;;
17886;SDS011;9069;52.044;7.472;2023-08-01T01:01:32;1.42;;;1.10;;
17886;SDS011;9069;52.044;7.472;2023-08-01T01:03:58;1.20;;;1.00;;
17886;SDS011;9069;52.044;7.472;2023-08-01T01:09:01;1.50;;;1.17;;
17886;SDS011;9069;52.044;7.472;2023-08-01T01:11:31;2.28;;;1.50;;
17886;SDS011;9069;52.044;7.472;2023-08-01T01:13:57;3.40;;;1.50;;
17886;SDS011;9069;52.044;7.472;2023-08-01T01:16:24;2.22;;;1.30;;
17886;SDS011;9069;52.044;7.472;2023-08-01T01:18:51;1.60;;;1.20;;
17886;SDS011;9069;52.044;7.472;2023-08-01T01:21:18;2.63;;;1.40;;
17886;SDS011;9069;52.044;7.472;2023-08-01T01:23:44;2.92;;;1.83;;
17886;SDS011;9069;52.044;7.472;2023-08-01T01:26:12;3.30;;;1.70;;
17886;SDS011;9069;52.044;7.472;2023-08-01T01:28:39;1.58;;;1.33;;
17886;SDS011;9069;52.044;7.472;2023-08-01T01:31:08;1.65;;;1.30;;
17886;SDS011;9069;52.044;7.472;2023-08-01T01:33:35;1.58;;;1.33;;
17886;SDS011;9069;52.044;7.472;2023-08-01T01:36:02;4.07;;;1.50;;
17886;SDS011;9069;52.044;7.472;2023-08-01T01:38:29;2.10;;;1.50;;
17886;SDS011;9069;52.044;7.472;2023-08-01T01:40:55;3.83;;;1.42;;
17886;SDS011;9069;52.044;7.472;2023-08-01T01:43:22;1.65;;;1.50;;
17886;SDS011;9069;52.044;7.472;2023-08-01T01:45:49;1.98;;;1.55;;
17886;SDS011;9069;52.044;7.472;2023-08-01T01:48:16;1.73;;;1.30;;
17886;SDS011;9069;52.044;7.472;2023-08-01T01:50:42;2.72;;;2.05;;
17886;SDS011;9069;52.044;7.472;2023-08-01T01:53:09;2.80;;;1.80;;
17886;SDS011;9069;52.044;7.472;2023-08-01T01:55:36;2.40;;;2.20;;
17886;SDS011;9069;52.044;7.472;2023-08-01T01:58:03;3.20;;;2.20;;
17886;SDS011;9069;52.044;7.472;2023-08-01T02:00:29;4.68;;;2.53;;
17886;SDS011;9069;52.044;7.472;2023-08-01T02:02:56;2.85;;;2.40;;
17886;SDS011;9069;52.044;7.472;2023-08-01T02:05:23;3.70;;;2.35;;
17886;SDS011;9069;52.044;7.472;2023-08-01T02:07:50;3.83;;;2.53;;
17886;SDS011;9069;52.044;7.472;2023-08-01T02:10:16;4.93;;;2.90;;
17886;SDS011;9069;52.044;7.472;2023-08-01T02:12:43;2.97;;;2.63;;
17886;SDS011;9069;52.044;7.472;2023-08-01T02:15:10;3.47;;;2.92;;
17886;SDS011;9069;52.044;7.472;2023-08-01T02:17:37;4.75;;;3.30;;
17886;SDS011;9069;52.044;7.472;2023-08-01T02:20:05;2.88;;;2.58;;
17886;SDS011;9069;52.044;7.472;2023-08-01T02:22:32;5.22;;;3.33;;
17886;SDS011;9069;52.044;7.472;2023-08-01T02:25:00;3.70;;;3.22;;
17886;SDS011;9069;52.044;7.472;2023-08-01T02:27:26;4.80;;;3.33;;
17886;SDS011;9069;52.044;7.472;2023-08-01T02:29:53;4.18;;;3.15;;
17886;SDS011;9069;52.044;7.472;2023-08-01T02:32:20;3.95;;;2.97;;
17886;SDS011;9069;52.044;7.472;2023-08-01T02:34:47;6.68;;;3.47;;
17886;SDS011;9069;52.044;7.472;2023-08-01T02:37:13;3.97;;;3.30;;
17886;SDS011;9069;52.044;7.472;2023-08-01T02:39:41;4.30;;;3.35;;
17886;SDS011;9069;52.044;7.472;2023-08-01T02:42:07;4.70;;;3.30;;
17886;SDS011;9069;52.044;7.472;2023-08-01T02:44:34;7.57;;;3.50;;
17886;SDS011;9069;52.044;7.472;2023-08-01T02:47:01;5.88;;;3.67;;
17886;SDS011;9069;52.044;7.472;2023-08-01T02:49:28;4.07;;;3.30;;
17886;SDS011;9069;52.044;7.472;2023-08-01T02:51:54;4.82;;;3.28;;
17886;SDS011;9069;52.044;7.472;2023-08-01T02:54:21;5.65;;;2.85;;
17886;SDS011;9069;52.044;7.472;2023-08-01T02:56:48;4.45;;;2.72;;
17886;SDS011;9069;52.044;7.472;2023-08-01T02:59:15;4.15;;;2.67;;
17886;SDS011;9069;52.044;7.472;2023-08-01T03:01:42;5.03;;;2.70;;
17886;SDS011;9069;52.044;7.472;2023-08-01T03:04:08;2.63;;;2.17;;
17886;SDS011;9069;52.044;7.472;2023-08-01T03:06:37;3.33;;;2.30;;
17886;SDS011;9069;52.044;7.472;2023-08-01T03:09:05;5.65;;;2.97;;
17886;SDS011;9069;52.044;7.472;2023-08-01T03:11:37;4.32;;;2.53;;
17886;SDS011;9069;52.044;7.472;2023-08-01T03:14:04;5.65;;;3.15;;
17886;SDS011;9069;52.044;7.472;2023-08-01T03:16:31;4.97;;;2.35;;
17886;SDS011;9069;52.044;7.472;2023-08-01T03:18:58;5.07;;;2.75;;
17886;SDS011;9069;52.044;7.472;2023-08-01T03:21:33;3.58;;;2.40;;
17886;SDS011;9069;52.044;7.472;2023-08-01T03:24:01;3.90;;;2.53;;
17886;SDS011;9069;52.044;7.472;2023-08-01T03:26:28;7.38;;;3.45;;
17886;SDS011;9069;52.044;7.472;2023-08-01T03:28:55;4.57;;;2.60;;
17886;SDS011;9069;52.044;7.472;2023-08-01T03:31:22;4.45;;;2.83;;
17886;SDS011;9069;52.044;7.472;2023-08-01T03:33:49;5.88;;;2.85;;
17886;SDS011;9069;52.044;7.472;2023-08-01T03:36:16;4.05;;;2.53;;
17886;SDS011;9069;52.044;7.472;2023-08-01T03:38:44;6.38;;;2.63;;
17886;SDS011;9069;52.044;7.472;2023-08-01T03:41:11;6.75;;;3.13;;
17886;SDS011;9069;52.044;7.472;2023-08-01T03:43:37;7.05;;;2.58;;
17886;SDS011;9069;52.044;7.472;2023-08-01T03:46:04;4.80;;;2.50;;
17886;SDS011;9069;52.044;7.472;2023-08-01T03:48:31;7.10;;;3.10;;
17886;SDS011;9069;52.044;7.472;2023-08-01T03:50:58;4.70;;;2.63;;
17886;SDS011;9069;52.044;7.472;2023-08-01T03:53:26;11.38;;;2.65;;
17886;SDS011;9069;52.044;7.472;2023-08-01T03:55:53;4.80;;;2.58;;
17886;SDS011;9069;52.044;7.472;2023-08-01T03:58:20;4.95;;;2.67;;
17886;SDS011;9069;52.044;7.472;2023-08-01T04:00:46;6.88;;;2.67;;
17886;SDS011;9069;52.044;7.472;2023-08-01T04:03:13;5.53;;;2.72;;
17886;SDS011;9069;52.044;7.472;2023-08-01T04:05:40;5.15;;;2.53;;
17886;SDS011;9069;52.044;7.472;2023-08-01T04:08:07;5.32;;;2.78;;
17886;SDS011;9069;52.044;7.472;2023-08-01T04:10:33;7.78;;;3.00;;
17886;SDS011;9069;52.044;7.472;2023-08-01T04:13:00;4.85;;;3.05;;
17886;SDS011;9069;52.044;7.472;2023-08-01T04:15:27;4.00;;;2.83;;
17886;SDS011;9069;52.044;7.472;2023-08-01T04:17:54;5.82;;;3.15;;
17886;SDS011;9069;52.044;7.472;2023-08-01T04:20:20;9.30;;;3.55;;
17886;SDS011;9069;52.044;7.472;2023-08-01T04:22:47;6.47;;;3.30;;
17886;SDS011;9069;52.044;7.472;2023-08-01T04:25:14;6.47;;;3.33;;
17886;SDS011;9069;52.044;7.472;2023-08-01T04:27:40;7.00;;;3.08;;
17886;SDS011;9069;52.044;7.472;2023-08-01T04:30:07;6.85;;;3.00;;
17886;SDS011;9069;52.044;7.472;2023-08-01T04:32:34;8.38;;;2.90;;
17886;SDS011;9069;52.044;7.472;2023-08-01T04:35:01;6.68;;;3.35;;
17886;SDS011;9069;52.044;7.472;2023-08-01T04:37:28;7.47;;;3.40;;
17886;SDS011;9069;52.044;7.472;2023-08-01T04:39:55;7.03;;;3.88;;
17886;SDS011;9069;52.044;7.472;2023-08-01T04:42:21;8.07;;;3.00;;
17886;SDS011;9069;52.044;7.472;2023-08-01T04:44:48;13.25;;;3.38;;
17886;SDS011;9069;52.044;7.472;2023-08-01T04:47:15;9.05;;;3.47;;
17886;SDS011;9069;52.044;7.472;2023-08-01T04:49:42;9.43;;;3.78;;
17886;SDS011;9069;52.044;7.472;2023-08-01T04:52:08;9.93;;;3.40;;
17886;SDS011;9069;52.044;7.472;2023-08-01T04:54:35;5.70;;;3.30;;
17886;SDS011;9069;52.044;7.472;2023-08-01T04:57:02;5.82;;;3.40;;
17886;SDS011;9069;52.044;7.472;2023-08-01T04:59:29;5.93;;;3.25;;
17886;SDS011;9069;52.044;7.472;2023-08-01T05:01:56;7.25;;;3.50;;
17886;SDS011;9069;52.044;7.472;2023-08-01T05:04:22;15.80;;;3.72;;
17886;SDS011;9069;52.044;7.472;2023-08-01T05:06:50;7.35;;;3.33;;
17886;SDS011;9069;52.044;7.472;2023-08-01T05:09:16;5.82;;;3.22;;
17886;SDS011;9069;52.044;7.472;2023-08-01T05:11:43;8.48;;;3.15;;
17886;SDS011;9069;52.044;7.472;2023-08-01T05:14:10;8.25;;;3.65;;
17886;SDS011;9069;52.044;7.472;2023-08-01T05:16:37;7.30;;;3.38;;
17886;SDS011;9069;52.044;7.472;2023-08-01T05:19:04;6.65;;;3.65;;
17886;SDS011;9069;52.044;7.472;2023-08-01T05:21:31;7.07;;;4.18;;
17886;SDS011;9069;52.044;7.472;2023-08-01T05:23:57;12.27;;;3.97;;
17886;SDS011;9069;52.044;7.472;2023-08-01T05:26:24;9.77;;;4.07;;
17886;SDS011;9069;52.044;7.472;2023-08-01T05:28:51;8.95;;;4.43;;
17886;SDS011;9069;52.044;7.472;2023-08-01T05:31:18;8.80;;;4.50;;
17886;SDS011;9069;52.044;7.472;2023-08-01T05:33:44;7.90;;;4.03;;
17886;SDS011;9069;52.044;7.472;2023-08-01T05:36:11;11.88;;;5.32;;
17886;SDS011;9069;52.044;7.472;2023-08-01T05:38:38;7.50;;;4.03;;
17886;SDS011;9069;52.044;7.472;2023-08-01T05:41:05;9.73;;;4.50;;
17886;SDS011;9069;52.044;7.472;2023-08-01T05:43:32;9.77;;;5.05;;
17886;SDS011;9069;52.044;7.472;2023-08-01T05:45:59;9.80;;;5.10;;
17886;SDS011;9069;52.044;7.472;2023-08-01T05:48:25;12.48;;;5.63;;
17886;SDS011;9069;52.044;7.472;2023-08-01T05:50:52;7.45;;;4.63;;
17886;SDS011;9069;52.044;7.472;2023-08-01T05:53:21;9.70;;;4.80;;
17886;SDS011;9069;52.044;7.472;2023-08-01T05:55:48;7.57;;;4.80;;
17886;SDS011;9069;52.044;7.472;2023-08-01T05:58:15;8.65;;;4.75;;
17886;SDS011;9069;52.044;7.472;2023-08-01T06:00:42;11.40;;;4.90;;
17886;SDS011;9069;52.044;7.472;2023-08-01T06:03:09;7.30;;;4.30;;
17886;SDS011;9069;52.044;7.472;2023-08-01T06:05:35;8.38;;;3.80;;
17886;SDS011;9069;52.044;7.472;2023-08-01T06:08:05;5.90;;;2.97;;
17886;SDS011;9069;52.044;7.472;2023-08-01T06:10:33;3.15;;;2.22;;
17886;SDS011;9069;52.044;7.472;2023-08-01T06:13:00;4.63;;;2.30;;
17886;SDS011;9069;52.044;7.472;2023-08-01T06:15:26;5.20;;;2.05;;
17886;SDS011;9069;52.044;7.472;2023-08-01T06:17:53;4.55;;;2.28;;
17886;SDS011;9069;52.044;7.472;2023-08-01T06:20:20;3.05;;;2.08;;
17886;SDS011;9069;52.044;7.472;2023-08-01T06:22:47;4.18;;;2.05;;
17886;SDS011;9069;52.044;7.472;2023-08-01T06:25:14;2.63;;;2.22;;
17886;SDS011;9069;52.044;7.472;2023-08-01T06:27:40;4.43;;;1.98;;
17886;SDS011;9069;52.044;7.472;2023-08-01T06:30:07;3.40;;;1.98;;
17886;SDS011;9069;52.044;7.472;2023-08-01T06:32:34;2.58;;;2.00;;
17886;SDS011;9069;52.044;7.472;2023-08-01T06:35:01;6.03;;;2.33;;
17886;SDS011;9069;52.044;7.472;2023-08-01T06:37:28;6.05;;;2.47;;
17886;SDS011;9069;52.044;7.472;2023-08-01T06:39:54;6.22;;;2.80;;
17886;SDS011;9069;52.044;7.472;2023-08-01T06:42:21;6.88;;;3.20;;
17886;SDS011;9069;52.044;7.472;2023-08-01T06:44:48;6.38;;;3.05;;
17886;SDS011;9069;52.044;7.472;2023-08-01T06:47:15;7.18;;;2.63;;
17886;SDS011;9069;52.044;7.472;2023-08-01T06:49:42;6.60;;;2.88;;
17886;SDS011;9069;52.044;7.472;2023-08-01T06:52:08;8.65;;;2.72;;
17886;SDS011;9069;52.044;7.472;2023-08-01T06:54:35;7.50;;;2.80;;
17886;SDS011;9069;52.044;7.472;2023-08-01T06:57:04;6.40;;;2.17;;
17886;SDS011;9069;52.044;7.472;2023-08-01T06:59:32;2.97;;;2.00;;
17886;SDS011;9069;52.044;7.472;2023-08-01T07:02:00;7.35;;;2.55;;
17886;SDS011;9069;52.044;7.472;2023-08-01T07:04:27;6.47;;;2.10;;
17886;SDS011;9069;52.044;7.472;2023-08-01T07:06:53;5.95;;;2.03;;
17886;SDS011;9069;52.044;7.472;2023-08-01T07:09:20;4.70;;;1.77;;
17886;SDS011;9069;52.044;7.472;2023-08-01T07:11:47;2.50;;;1.63;;
17886;SDS011;9069;52.044;7.472;2023-08-01T07:14:14;1.88;;;1.30;;
17886;SDS011;9069;52.044;7.472;2023-08-01T07:16:41;2.17;;;1.25;;
17886;SDS011;9069;52.044;7.472;2023-08-01T07:19:08;2.00;;;1.20;;
17886;SDS011;9069;52.044;7.472;2023-08-01T07:21:34;4.13;;;1.52;;
17886;SDS011;9069;52.044;7.472;2023-08-01T07:24:01;5.57;;;1.70;;
17886;SDS011;9069;52.044;7.472;2023-08-01T07:26:28;4.63;;;1.70;;
17886;SDS011;9069;52.044;7.472;2023-08-01T07:28:56;5.85;;;1.92;;
17886;SDS011;9069;52.044;7.472;2023-08-01T07:31:22;5.18;;;2.05;;
17886;SDS011;9069;52.044;7.472;2023-08-01T07:33:50;5.43;;;2.08;;
17886;SDS011;9069;52.044;7.472;2023-08-01T07:36:17;5.00;;;2.08;;
17886;SDS011;9069;52.044;7.472;2023-08-01T07:38:43;6.72;;;3.53;;
17886;SDS011;9069;52.044;7.472;2023-08-01T07:41:10;5.15;;;2.95;;
17886;SDS011;9069;52.044;7.472;2023-08-01T07:43:37;4.97;;;3.08;;
17886;SDS011;9069;52.044;7.472;2023-08-01T07:46:03;5.20;;;3.17;;
17886;SDS011;9069;52.044;7.472;2023-08-01T07:48:30;7.38;;;3.65;;
17886;SDS011;9069;52.044;7.472;2023-08-01T07:50:57;8.77;;;4.47;;
17886;SDS011;9069;52.044;7.472;2023-08-01T07:53:24;10.25;;;4.22;;
17886;SDS011;9069;52.044;7.472;2023-08-01T07:55:51;8.13;;;4.20;;
17886;SDS011;9069;52.044;7.472;2023-08-01T07:58:19;8.75;;;4.28;;
17886;SDS011;9069;52.044;7.472;2023-08-01T08:00:45;8.70;;;4.20;;
17886;SDS011;9069;52.044;7.472;2023-08-01T08:03:12;7.93;;;4.20;;
17886;SDS011;9069;52.044;7.472;2023-08-01T08:05:39;8.57;;;3.75;;
17886;SDS011;9069;52.044;7.472;2023-08-01T08:08:06;6.38;;;3.67;;
17886;SDS011;9069;52.044;7.472;2023-08-01T08:10:33;9.80;;;4.22;;
17886;SDS011;9069;52.044;7.472;2023-08-01T08:13:00;6.38;;;3.45;;
17886;SDS011;9069;52.044;7.472;2023-08-01T08:15:26;7.82;;;3.97;;
17886;SDS011;9069;52.044;7.472;2023-08-01T08:17:53;7.63;;;3.42;;
17886;SDS011;9069;52.044;7.472;2023-08-01T08:20:20;11.85;;;4.18;;
17886;SDS011;9069;52.044;7.472;2023-08-01T08:22:47;8.27;;;2.88;;
17886;SDS011;9069;52.044;7.472;2023-08-01T08:25:13;9.07;;;3.50;;
17886;SDS011;9069;52.044;7.472;2023-08-01T08:27:40;7.43;;;3.35;;
17886;SDS011;9069;52.044;7.472;2023-08-01T08:30:07;5.97;;;3.63;;
17886;SDS011;9069;52.044;7.472;2023-08-01T08:32:35;6.47;;;3.42;;
17886;SDS011;9069;52.044;7.472;2023-08-01T08:35:02;7.05;;;3.25;;
17886;SDS011;9069;52.044;7.472;2023-08-01T08:37:30;6.88;;;3.22;;
17886;SDS011;9069;52.044;7.472;2023-08-01T08:39:56;9.65;;;3.22;;
17886;SDS011;9069;52.044;7.472;2023-08-01T08:42:23;6.28;;;3.17;;
17886;SDS011;9069;52.044;7.472;2023-08-01T08:44:53;10.55;;;3.35;;
17886;SDS011;9069;52.044;7.472;2023-08-01T08:47:25;4.57;;;2.85;;
17886;SDS011;9069;52.044;7.472;2023-08-01T08:49:56;6.18;;;2.78;;
17886;SDS011;9069;52.044;7.472;2023-08-01T08:52:24;5.47;;;2.78;;
17886;SDS011;9069;52.044;7.472;2023-08-01T08:54:52;6.07;;;2.90;;
17886;SDS011;9069;52.044;7.472;2023-08-01T08:57:19;6.90;;;3.28;;
17886;SDS011;9069;52.044;7.472;2023-08-01T08:59:47;5.53;;;3.00;;
17886;SDS011;9069;52.044;7.472;2023-08-01T09:02:14;5.95;;;2.80;;
17886;SDS011;9069;52.044;7.472;2023-08-01T09:04:42;7.13;;;3.17;;
17886;SDS011;9069;52.044;7.472;2023-08-01T09:07:10;5.68;;;3.28;;
17886;SDS011;9069;52.044;7.472;2023-08-01T09:09:37;4.68;;;3.13;;
17886;SDS011;9069;52.044;7.472;2023-08-01T09:12:04;4.75;;;2.70;;
17886;SDS011;9069;52.044;7.472;2023-08-01T09:14:32;5.20;;;2.90;;
17886;SDS011;9069;52.044;7.472;2023-08-01T09:17:05;8.25;;;3.15;;
17886;SDS011;9069;52.044;7.472;2023-08-01T09:19:34;4.45;;;2.20;;
17886;SDS011;9069;52.044;7.472;2023-08-01T09:22:01;4.18;;;1.92;;
17886;SDS011;9069;52.044;7.472;2023-08-01T09:24:28;4.05;;;2.38;;
17886;SDS011;9069;52.044;7.472;2023-08-01T09:27:01;5.97;;;2.33;;
17886;SDS011;9069;52.044;7.472;2023-08-01T09:29:32;4.95;;;2.30;;
17886;SDS011;9069;52.044;7.472;2023-08-01T09:31:59;6.53;;;3.30;;
17886;SDS011;9069;52.044;7.472;2023-08-01T09:34:26;8.20;;;3.28;;
17886;SDS011;9069;52.044;7.472;2023-08-01T09:36:59;4.82;;;2.70;;
17886;SDS011;9069;52.044;7.472;2023-08-01T09:39:26;6.43;;;2.90;;
17886;SDS011;9069;52.044;7.472;2023-08-01T09:41:57;8.20;;;3.22;;
17886;SDS011;9069;52.044;7.472;2023-08-01T09:44:26;5.32;;;2.97;;
17886;SDS011;9069;52.044;7.472;2023-08-01T09:47:01;7.68;;;3.15;;
17886;SDS011;9069;52.044;7.472;2023-08-01T09:49:29;8.45;;;3.08;;
17886;SDS011;9069;52.044;7.472;2023-08-01T09:51:56;5.63;;;2.67;;
17886;SDS011;9069;52.044;7.472;2023-08-01T09:54:24;6.78;;;2.65;;
17886;SDS011;9069;52.044;7.472;2023-08-01T09:56:51;5.68;;;2.42;;
17886;SDS011;9069;52.044;7.472;2023-08-01T09:59:20;2.72;;;1.88;;
17886;SDS011;9069;52.044;7.472;2023-08-01T10:01:49;4.72;;;2.30;;
17886;SDS011;9069;52.044;7.472;2023-08-01T10:04:20;3.72;;;2.15;;
17886;SDS011;9069;52.044;7.472;2023-08-01T10:06:51;4.53;;;2.38;;
17886;SDS011;9069;52.044;7.472;2023-08-01T10:09:23;5.72;;;2.30;;
17886;SDS011;9069;52.044;7.472;2023-08-01T10:11:50;5.10;;;2.33;;
17886;SDS011;9069;52.044;7.472;2023-08-01T10:14:19;5.65;;;2.13;;
17886;SDS011;9069;52.044;7.472;2023-08-01T10:16:46;4.35;;;2.33;;
17886;SDS011;9069;52.044;7.472;2023-08-01T10:19:14;3.20;;;1.70;;
17886;SDS011;9069;52.044;7.472;2023-08-01T10:21:42;4.75;;;1.90;;
17886;SDS011;9069;52.044;7.472;2023-08-01T10:24:10;4.95;;;2.03;;
17886;SDS011;9069;52.044;7.472;2023-08-01T10:26:38;3.38;;;1.77;;
17886;SDS011;9069;52.044;7.472;2023-08-01T10:29:05;4.05;;;1.88;;
17886;SDS011;9069;52.044;7.472;2023-08-01T10:31:32;2.97;;;1.73;;
17886;SDS011;9069;52.044;7.472;2023-08-01T10:34:03;4.32;;;1.75;;
17886;SDS011;9069;52.044;7.472;2023-08-01T10:36:41;7.00;;;2.10;;
17886;SDS011;9069;52.044;7.472;2023-08-01T10:39:08;5.40;;;2.38;;
17886;SDS011;9069;52.044;7.472;2023-08-01T10:41:35;3.95;;;1.42;;
17886;SDS011;9069;52.044;7.472;2023-08-01T10:44:07;5.03;;;1.60;;
17886;SDS011;9069;52.044;7.472;2023-08-01T10:49:19;2.63;;;1.77;;
17886;SDS011;9069;52.044;7.472;2023-08-01T10:51:48;3.10;;;1.80;;
17886;SDS011;9069;52.044;7.472;2023-08-01T10:54:24;5.20;;;2.00;;
17886;SDS011;9069;52.044;7.472;2023-08-01T10:56:52;4.68;;;2.03;;
17886;SDS011;9069;52.044;7.472;2023-08-01T10:59:21;6.00;;;2.17;;
17886;SDS011;9069;52.044;7.472;2023-08-01T11:01:49;5.97;;;2.42;;
17886;SDS011;9069;52.044;7.472;2023-08-01T11:04:18;7.82;;;2.10;;
17886;SDS011;9069;52.044;7.472;2023-08-01T11:06:50;4.13;;;2.38;;
17886;SDS011;9069;52.044;7.472;2023-08-01T11:09:20;3.83;;;1.80;;
17886;SDS011;9069;52.044;7.472;2023-08-01T11:11:52;9.10;;;1.92;;
17886;SDS011;9069;52.044;7.472;2023-08-01T11:14:20;3.00;;;1.92;;
17886;SDS011;9069;52.044;7.472;2023-08-01T11:16:49;5.00;;;2.40;;
17886;SDS011;9069;52.044;7.472;2023-08-01T11:19:17;5.63;;;2.60;;
17886;SDS011;9069;52.044;7.472;2023-08-01T11:21:48;4.68;;;2.20;;
17886;SDS011;9069;52.044;7.472;2023-08-01T11:24:16;4.07;;;2.42;;
17886;SDS011;9069;52.044;7.472;2023-08-01T11:26:44;4.40;;;2.45;;
17886;SDS011;9069;52.044;7.472;2023-08-01T11:29:12;5.07;;;2.47;;
17886;SDS011;9069;52.044;7.472;2023-08-01T11:31:41;5.57;;;2.20;;
17886;SDS011;9069;52.044;7.472;2023-08-01T11:34:18;6.43;;;2.20;;
17886;SDS011;9069;52.044;7.472;2023-08-01T11:36:45;4.00;;;1.90;;
17886;SDS011;9069;52.044;7.472;2023-08-01T11:39:12;5.82;;;1.92;;
17886;SDS011;9069;52.044;7.472;2023-08-01T11:41:40;5.15;;;1.90;;
17886;SDS011;9069;52.044;7.472;2023-08-01T11:44:08;7.13;;;2.33;;
17886;SDS011;9069;52.044;7.472;2023-08-01T11:46:37;3.92;;;1.77;;
17886;SDS011;9069;52.044;7.472;2023-08-01T11:49:05;4.07;;;1.13;;
17886;SDS011;9069;52.044;7.472;2023-08-01T11:51:40;2.78;;;1.00;;
17886;SDS011;9069;52.044;7.472;2023-08-01T11:54:08;1.65;;;1.23;;
17886;SDS011;9069;52.044;7.472;2023-08-01T11:56:37;1.95;;;0.90;;
17886;SDS011;9069;52.044;7.472;2023-08-01T11:59:15;1.92;;;0.90;;
17886;SDS011;9069;52.044;7.472;2023-08-01T12:01:46;2.20;;;1.00;;
17886;SDS011;9069;52.044;7.472;2023-08-01T12:04:27;2.30;;;0.88;;
17886;SDS011;9069;52.044;7.472;2023-08-01T12:06:54;3.45;;;1.10;;
17886;SDS011;9069;52.044;7.472;2023-08-01T12:09:22;1.52;;;0.70;;
17886;SDS011;9069;52.044;7.472;2023-08-01T12:11:58;1.95;;;0.95;;
17886;SDS011;9069;52.044;7.472;2023-08-01T12:14:30;2.60;;;1.08;;
17886;SDS011;9069;52.044;7.472;2023-08-01T12:16:57;3.00;;;1.10;;
17886;SDS011;9069;52.044;7.472;2023-08-01T12:19:24;3.17;;;1.30;;
17886;SDS011;9069;52.044;7.472;2023-08-01T12:21:50;3.85;;;1.40;;
17886;SDS011;9069;52.044;7.472;2023-08-01T12:24:17;4.00;;;1.98;;
17886;SDS011;9069;52.044;7.472;2023-08-01T12:26:44;3.08;;;1.85;;
17886;SDS011;9069;52.044;7.472;2023-08-01T12:29:10;8.10;;;2.25;;
17886;SDS011;9069;52.044;7.472;2023-08-01T12:31:38;3.63;;;1.40;;
17886;SDS011;9069;52.044;7.472;2023-08-01T12:34:05;4.13;;;1.52;;
17886;SDS011;9069;52.044;7.472;2023-08-01T12:36:31;4.25;;;1.58;;
17886;SDS011;9069;52.044;7.472;2023-08-01T12:38:58;2.83;;;1.50;;
17886;SDS011;9069;52.044;7.472;2023-08-01T12:41:25;4.40;;;1.13;;
17886;SDS011;9069;52.044;7.472;2023-08-01T12:43:52;3.75;;;1.20;;
17886;SDS011;9069;52.044;7.472;2023-08-01T12:46:18;1.45;;;0.93;;
17886;SDS011;9069;52.044;7.472;2023-08-01T12:48:45;2.00;;;1.08;;
17886;SDS011;9069;52.044;7.472;2023-08-01T12:51:12;4.68;;;1.35;;
17886;SDS011;9069;52.044;7.472;2023-08-01T12:53:41;5.30;;;1.52;;
17886;SDS011;9069;52.044;7.472;2023-08-01T12:56:10;4.38;;;1.20;;
17886;SDS011;9069;52.044;7.472;2023-08-01T12:58:37;3.78;;;1.33;;
17886;SDS011;9069;52.044;7.472;2023-08-01T13:01:04;3.95;;;1.40;;
17886;SDS011;9069;52.044;7.472;2023-08-01T13:03:32;5.93;;;1.65;;
17886;SDS011;9069;52.044;7.472;2023-08-01T13:05:59;6.30;;;1.20;;
17886;SDS011;9069;52.044;7.472;2023-08-01T13:08:25;2.33;;;1.30;;
17886;SDS011;9069;52.044;7.472;2023-08-01T13:10:52;3.45;;;1.08;;
17886;SDS011;9069;52.044;7.472;2023-08-01T13:13:19;4.57;;;1.73;;
17886;SDS011;9069;52.044;7.472;2023-08-01T13:15:46;4.75;;;1.50;;
17886;SDS011;9069;52.044;7.472;2023-08-01T13:18:13;7.10;;;1.60;;
17886;SDS011;9069;52.044;7.472;2023-08-01T13:20:40;3.03;;;1.33;;
17886;SDS011;9069;52.044;7.472;2023-08-01T13:23:07;9.65;;;1.70;;
17886;SDS011;9069;52.044;7.472;2023-08-01T13:25:34;4.00;;;1.80;;
17886;SDS011;9069;52.044;7.472;2023-08-01T13:28:02;7.28;;;1.88;;
17886;SDS011;9069;52.044;7.472;2023-08-01T13:30:28;2.55;;;1.50;;
17886;SDS011;9069;52.044;7.472;2023-08-01T13:32:55;10.50;;;1.73;;
17886;SDS011;9069;52.044;7.472;2023-08-01T13:35:22;4.88;;;1.60;;
17886;SDS011;9069;52.044;7.472;2023-08-01T13:37:49;3.85;;;1.70;;
17886;SDS011;9069;52.044;7.472;2023-08-01T13:40:15;7.38;;;1.33;;
17886;SDS011;9069;52.044;7.472;2023-08-01T13:42:42;7.20;;;2.03;;
17886;SDS011;9069;52.044;7.472;2023-08-01T13:45:09;7.85;;;1.80;;
17886;SDS011;9069;52.044;7.472;2023-08-01T13:47:36;3.55;;;1.38;;
17886;SDS011;9069;52.044;7.472;2023-08-01T13:50:03;6.18;;;1.73;;
17886;SDS011;9069;52.044;7.472;2023-08-01T13:52:30;3.85;;;1.58;;
17886;SDS011;9069;52.044;7.472;2023-08-01T13:54:56;3.47;;;1.50;;
17886;SDS011;9069;52.044;7.472;2023-08-01T13:57:23;2.95;;;1.42;;
17886;SDS011;9069;52.044;7.472;2023-08-01T13:59:51;4.05;;;1.65;;
17886;SDS011;9069;52.044;7.472;2023-08-01T14:02:36;1.98;;;1.40;;
17886;SDS011;9069;52.044;7.472;2023-08-01T14:05:03;4.65;;;1.42;;
17886;SDS011;9069;52.044;7.472;2023-08-01T14:07:30;2.33;;;1.30;;
17886;SDS011;9069;52.044;7.472;2023-08-01T14:09:57;4.30;;;1.65;;
17886;SDS011;9069;52.044;7.472;2023-08-01T14:12:24;5.57;;;1.77;;
17886;SDS011;9069;52.044;7.472;2023-08-01T14:14:52;2.97;;;1.60;;
17886;SDS011;9069;52.044;7.472;2023-08-01T14:17:19;2.67;;;1.60;;
17886;SDS011;9069;52.044;7.472;2023-08-01T14:19:46;3.67;;;1.50;;
17886;SDS011;9069;52.044;7.472;2023-08-01T14:22:12;3.55;;;1.40;;
17886;SDS011;9069;52.044;7.472;2023-08-01T14:24:39;3.38;;;1.10;;
17886;SDS011;9069;52.044;7.472;2023-08-01T14:27:06;2.72;;;1.10;;
17886;SDS011;9069;52.044;7.472;2023-08-01T14:29:33;4.28;;;1.33;;
17886;SDS011;9069;52.044;7.472;2023-08-01T14:31:59;3.60;;;1.30;;
17886;SDS011;9069;52.044;7.472;2023-08-01T14:34:26;3.75;;;1.50;;
17886;SDS011;9069;52.044;7.472;2023-08-01T14:36:53;4.85;;;1.38;;
17886;SDS011;9069;52.044;7.472;2023-08-01T14:39:20;1.23;;;1.08;;
17886;SDS011;9069;52.044;7.472;2023-08-01T14:41:49;4.25;;;1.13;;
17886;SDS011;9069;52.044;7.472;2023-08-01T14:44:19;4.93;;;1.15;;
17886;SDS011;9069;52.044;7.472;2023-08-01T14:46:46;2.40;;;1.00;;
17886;SDS011;9069;52.044;7.472;2023-08-01T14:49:12;2.55;;;0.80;;
17886;SDS011;9069;52.044;7.472;2023-08-01T14:51:39;5.55;;;1.50;;
17886;SDS011;9069;52.044;7.472;2023-08-01T14:54:06;4.00;;;1.67;;
17886;SDS011;9069;52.044;7.472;2023-08-01T14:56:33;9.25;;;2.78;;
17886;SDS011;9069;52.044;7.472;2023-08-01T14:58:59;3.90;;;2.10;;
17886;SDS011;9069;52.044;7.472;2023-08-01T15:01:26;4.05;;;1.60;;
17886;SDS011;9069;52.044;7.472;2023-08-01T15:03:53;3.75;;;1.30;;
17886;SDS011;9069;52.044;7.472;2023-08-01T15:06:20;3.75;;;1.30;;